Crissiumal, Brazil
Current Conditions -  °F | °C
As of 10:00 AM on Thursday 27 Nov 2014 (Local Time) from SBCH Reporting Station
Few Clouds Few Clouds  
Wind Chill: 77°   Ceiling: Unl
Heat Index: 79°   Visibility: 6mi
Dew Point: 64°   Wind: 5mph
Humidity: 65%   Direction: 30°NNE
Pressure: 29.97"   Gusts: NA
Location:  27.5°S, 54.1°W
Report Text: SBCH 271200Z 03004KT 9999 FEW030 25/18 Q1015
Loading
Personal Weather Stations






























Interactive Weather Map New forecast layout! Learn more

10-Day Weather Forecast

Advertisements
Track Severe Weather on mobile